createdAt,value
2019-05-16T00:00:00.914Z,13.30
2019-05-16T00:02:31.106Z,13.20
2019-05-16T00:05:01.309Z,13.30
2019-05-16T00:07:31.614Z,13.30
2019-05-16T00:10:01.823Z,13.20
2019-05-16T00:12:32.210Z,13.30
2019-05-16T00:15:02.396Z,13.20
2019-05-16T00:17:33.649Z,13.20
2019-05-16T00:20:04.996Z,13.20
2019-05-16T00:22:35.199Z,13.30
2019-05-16T00:25:05.471Z,13.30
2019-05-16T00:27:35.786Z,13.20
2019-05-16T00:30:08.837Z,13.30
2019-05-16T00:32:39.291Z,13.30
2019-05-16T00:35:09.614Z,13.30
2019-05-16T00:37:39.867Z,13.30
2019-05-16T00:40:11.077Z,13.30
2019-05-16T00:42:41.234Z,13.30
2019-05-16T00:45:13.405Z,13.30
2019-05-16T00:47:43.322Z,13.30
2019-05-16T00:50:13.583Z,13.30
2019-05-16T00:52:43.712Z,13.30
2019-05-16T00:55:14.096Z,13.30
2019-05-16T00:57:44.729Z,13.30
2019-05-16T01:00:15.191Z,13.30
2019-05-16T01:02:45.390Z,13.20
2019-05-16T01:05:15.533Z,13.30
2019-05-16T01:07:47.882Z,13.20
2019-05-16T01:10:18.311Z,13.30
2019-05-16T01:12:48.669Z,13.30
2019-05-16T01:15:18.803Z,13.30
2019-05-16T01:17:48.954Z,13.40
2019-05-16T01:20:19.400Z,13.40
2019-05-16T01:22:49.736Z,13.30
2019-05-16T01:25:19.926Z,13.40
2019-05-16T01:27:50.061Z,13.40
2019-05-16T01:30:20.189Z,13.40
2019-05-16T01:32:50.319Z,13.40
2019-05-16T01:35:20.527Z,13.40
2019-05-16T01:37:50.626Z,13.40
2019-05-16T01:40:20.779Z,13.40
2019-05-16T01:42:50.949Z,13.40
2019-05-16T01:45:21.069Z,13.40
2019-05-16T01:47:51.194Z,13.40
2019-05-16T01:50:21.397Z,13.40
2019-05-16T01:52:51.560Z,13.50
2019-05-16T01:55:21.733Z,13.50
2019-05-16T01:57:51.909Z,13.50
2019-05-16T02:00:25.243Z,13.40
2019-05-16T02:02:53.876Z,13.50
2019-05-16T02:05:24.088Z,13.50
2019-05-16T02:07:54.241Z,13.50
2019-05-16T02:10:24.386Z,13.50
2019-05-16T02:12:54.610Z,13.50
2019-05-16T02:15:24.756Z,13.50
2019-05-16T02:17:54.995Z,13.40
2019-05-16T02:20:25.117Z,13.40
2019-05-16T02:22:55.201Z,13.40
2019-05-16T02:25:27.628Z,13.40
2019-05-16T02:27:58.974Z,13.40
2019-05-16T02:30:31.498Z,13.40
2019-05-16T02:33:01.318Z,13.40
2019-05-16T02:35:31.656Z,13.40
2019-05-16T02:38:01.885Z,13.40
2019-05-16T02:40:32.030Z,13.40
2019-05-16T02:43:02.292Z,13.40
2019-05-16T02:45:32.784Z,13.40
2019-05-16T02:48:03.126Z,13.40
2019-05-16T02:50:33.417Z,13.40
2019-05-16T02:53:03.570Z,13.40
2019-05-16T02:55:33.779Z,13.50
2019-05-16T02:58:03.997Z,13.40
2019-05-16T03:00:36.235Z,13.50
2019-05-16T03:03:06.921Z,13.50
2019-05-16T03:05:37.027Z,13.50
2019-05-16T03:08:07.168Z,13.60
2019-05-16T03:10:41.023Z,13.60
2019-05-16T03:13:11.193Z,13.60
2019-05-16T03:15:43.721Z,13.60
2019-05-16T03:18:14.228Z,13.60
2019-05-16T03:20:46.395Z,13.60
2019-05-16T03:23:16.522Z,13.60
2019-05-16T03:25:46.748Z,13.60
2019-05-16T03:28:16.887Z,13.60
2019-05-16T03:30:47.080Z,13.60
2019-05-16T03:33:25.926Z,13.60
2019-05-16T03:35:54.422Z,13.60
2019-05-16T03:38:21.438Z,13.60
2019-05-16T03:40:51.721Z,13.60
2019-05-16T03:43:22.218Z,13.60
2019-05-16T03:45:52.575Z,13.60
2019-05-16T03:48:22.768Z,13.70
2019-05-16T03:50:53.006Z,13.70
2019-05-16T03:53:23.425Z,13.70
2019-05-16T03:55:53.694Z,13.70
2019-05-16T03:58:23.882Z,13.70
2019-05-16T04:00:55.378Z,13.70
2019-05-16T04:03:28.613Z,13.70
2019-05-16T04:06:00.802Z,13.70
2019-05-16T04:08:31.084Z,13.80
2019-05-16T04:11:02.382Z,13.80
2019-05-16T04:13:32.731Z,13.80
2019-05-16T04:16:02.901Z,13.80
2019-05-16T04:18:33.110Z,13.80
2019-05-16T04:21:03.340Z,13.80
2019-05-16T04:23:33.571Z,13.80
2019-05-16T04:26:03.705Z,13.80
2019-05-16T04:28:33.904Z,13.80
2019-05-16T04:31:04.101Z,13.90
2019-05-16T04:33:34.239Z,13.90
2019-05-16T04:36:04.487Z,13.90
2019-05-16T04:38:41.309Z,13.90
2019-05-16T04:41:07.524Z,13.90
2019-05-16T04:43:37.728Z,13.90
2019-05-16T04:46:11.664Z,13.90
2019-05-16T04:48:41.692Z,13.90
2019-05-16T04:51:12.196Z,13.90
2019-05-16T04:53:42.799Z,13.90
2019-05-16T04:56:32.311Z,13.90
2019-05-16T04:59:02.367Z,13.90
2019-05-16T05:01:32.595Z,14.00
2019-05-16T05:04:10.746Z,13.90
2019-05-16T05:06:34.663Z,13.90
2019-05-16T05:09:06.185Z,13.90
2019-05-16T05:11:36.320Z,13.90
2019-05-16T05:14:10.319Z,14.00
2019-05-16T05:16:41.322Z,14.00
2019-05-16T05:19:11.417Z,14.00
2019-05-16T05:21:41.675Z,14.00
2019-05-16T05:24:11.878Z,14.00
2019-05-16T05:26:42.107Z,14.00
2019-05-16T05:29:12.297Z,14.00
2019-05-16T05:31:44.804Z,14.00
2019-05-16T05:34:14.257Z,14.00
2019-05-16T05:36:44.478Z,14.00
2019-05-16T05:39:15.546Z,14.00
2019-05-16T05:41:45.896Z,14.00
2019-05-16T05:44:16.167Z,14.10
2019-05-16T05:46:46.310Z,14.10
2019-05-16T05:49:16.448Z,14.20
2019-05-16T05:51:46.516Z,14.20
2019-05-16T05:54:16.718Z,14.20
2019-05-16T05:56:46.871Z,14.20
2019-05-16T05:59:17.022Z,14.30
2019-05-16T06:01:47.173Z,14.30
2019-05-16T06:04:19.678Z,14.40
2019-05-16T06:06:50.324Z,14.40
2019-05-16T06:09:28.328Z,14.40
2019-05-16T06:11:52.654Z,14.40
2019-05-16T06:14:23.860Z,14.50
2019-05-16T06:16:53.994Z,14.50
2019-05-16T06:19:24.138Z,14.60
2019-05-16T06:21:54.322Z,14.60
2019-05-16T06:24:24.455Z,14.60
2019-05-16T06:26:54.646Z,14.60
2019-05-16T06:29:24.794Z,14.60
2019-05-16T06:31:54.933Z,14.60
2019-05-16T06:34:25.190Z,14.70
2019-05-16T06:36:55.392Z,14.70
2019-05-16T06:39:37.527Z,14.70
2019-05-16T06:41:57.311Z,14.70
2019-05-16T06:44:27.466Z,14.80
2019-05-16T06:47:14.945Z,14.80
2019-05-16T06:49:30.410Z,14.80
2019-05-16T06:52:00.774Z,14.80
2019-05-16T06:54:30.937Z,14.80
2019-05-16T06:57:01.162Z,14.80
2019-05-16T06:59:31.228Z,14.80
2019-05-16T07:02:01.358Z,14.80
2019-05-16T07:04:31.499Z,14.90
2019-05-16T07:07:03.095Z,14.90
2019-05-16T07:09:33.553Z,15.00
2019-05-16T07:12:03.706Z,15.00
2019-05-16T07:14:33.765Z,15.00
2019-05-16T07:17:03.952Z,15.00
2019-05-16T07:19:35.538Z,15.00
2019-05-16T07:22:05.846Z,15.00
2019-05-16T07:24:35.979Z,15.00
2019-05-16T07:27:09.014Z,15.10
2019-05-16T07:29:40.078Z,15.10
2019-05-16T07:32:09.846Z,15.20
2019-05-16T07:34:40.416Z,15.20
2019-05-16T07:37:11.719Z,15.30
2019-05-16T07:39:42.076Z,15.30
2019-05-16T07:42:12.241Z,15.50
2019-05-16T07:44:42.730Z,15.60
2019-05-16T07:47:12.882Z,15.60
2019-05-16T07:49:43.011Z,15.60
2019-05-16T07:52:13.171Z,15.70
2019-05-16T07:54:43.295Z,15.80
2019-05-16T07:57:19.655Z,15.90
2019-05-16T07:59:46.351Z,15.90
2019-05-16T08:02:16.582Z,16.00
2019-05-16T08:04:46.724Z,16.00
2019-05-16T08:07:16.927Z,16.10
2019-05-16T08:09:47.103Z,16.20
2019-05-16T08:12:23.483Z,16.20
2019-05-16T08:14:50.191Z,16.20
2019-05-16T08:17:21.889Z,16.30
2019-05-16T08:19:52.208Z,16.20
2019-05-16T08:22:22.877Z,16.20
2019-05-16T08:24:53.309Z,16.30
2019-05-16T08:27:23.511Z,16.40
2019-05-16T08:29:53.582Z,16.50
2019-05-16T08:32:23.778Z,16.40
2019-05-16T08:34:53.995Z,16.50
2019-05-16T08:37:37.520Z,16.50
2019-05-16T08:39:56.102Z,16.50
2019-05-16T08:42:26.408Z,16.40
2019-05-16T08:44:56.590Z,16.40
2019-05-16T08:47:26.857Z,16.50
2019-05-16T08:49:57.051Z,16.60
2019-05-16T08:52:27.246Z,16.80
2019-05-16T08:54:57.653Z,17.00
2019-05-16T08:57:32.282Z,17.10
2019-05-16T09:00:01.335Z,17.10
2019-05-16T09:05:05.332Z,17.20
2019-05-16T09:07:35.462Z,17.10
2019-05-16T09:10:35.347Z,17.10
2019-05-16T09:10:42.043Z,17.10
2019-05-16T09:12:38.400Z,17.10
2019-05-16T09:15:09.861Z,17.30
2019-05-16T09:17:40.175Z,17.40
2019-05-16T09:20:10.752Z,17.60
2019-05-16T09:22:41.009Z,17.60
2019-05-16T09:25:11.589Z,17.60
2019-05-16T09:27:41.816Z,17.70
2019-05-16T09:30:12.186Z,17.70
2019-05-16T09:32:43.506Z,17.80
2019-05-16T09:35:13.925Z,17.70
2019-05-16T09:37:47.116Z,17.50
2019-05-16T09:40:17.445Z,17.40
2019-05-16T09:42:48.912Z,17.40
2019-05-16T09:45:19.410Z,17.30
2019-05-16T09:47:49.656Z,17.30
2019-05-16T09:50:20.096Z,17.30
2019-05-16T09:52:50.350Z,17.30
2019-05-16T09:55:20.813Z,17.20
2019-05-16T09:57:54.434Z,17.10
2019-05-16T10:00:26.941Z,17.00
2019-05-16T10:02:57.932Z,16.80
2019-05-16T10:05:28.428Z,16.60
2019-05-16T10:07:58.887Z,16.40
2019-05-16T10:10:29.061Z,16.30
2019-05-16T10:12:59.467Z,16.30
2019-05-16T10:15:29.678Z,16.20
2019-05-16T10:17:59.863Z,16.20
2019-05-16T10:20:30.092Z,16.00
2019-05-16T10:23:00.286Z,15.90
2019-05-16T10:25:30.521Z,15.80
2019-05-16T10:28:00.805Z,15.70
2019-05-16T10:30:30.915Z,15.60
2019-05-16T10:33:01.161Z,15.50
2019-05-16T10:35:31.402Z,15.40
2019-05-16T10:38:01.609Z,15.40
2019-05-16T10:40:31.968Z,15.40
2019-05-16T10:43:02.357Z,15.40
2019-05-16T10:45:32.734Z,15.30
2019-05-16T10:48:02.879Z,15.30
2019-05-16T10:50:33.088Z,15.20
2019-05-16T10:53:27.826Z,15.30
2019-05-16T10:55:36.816Z,15.30
2019-05-16T10:58:07.797Z,15.40
2019-05-16T11:01:05.508Z,15.40
2019-05-16T11:03:10.021Z,15.40
2019-05-16T11:05:40.260Z,15.40
2019-05-16T11:08:10.628Z,15.30
2019-05-16T11:10:41.035Z,15.30
2019-05-16T11:13:11.405Z,15.20
2019-05-16T11:15:41.594Z,15.40
2019-05-16T11:18:11.848Z,15.50
2019-05-16T11:20:45.072Z,15.70
2019-05-16T11:23:13.875Z,15.80
2019-05-16T11:25:44.127Z,15.90
2019-05-16T11:28:14.339Z,16.00
2019-05-16T11:30:44.569Z,16.00
2019-05-16T11:33:17.164Z,16.00
2019-05-16T11:35:47.649Z,16.00
2019-05-16T11:38:19.251Z,15.90
2019-05-16T11:40:49.522Z,15.70
2019-05-16T11:43:21.897Z,15.70
2019-05-16T11:45:51.634Z,15.70
2019-05-16T11:48:25.065Z,15.70
2019-05-16T11:50:56.747Z,15.80
2019-05-16T11:53:28.309Z,15.80
2019-05-16T11:56:02.063Z,15.80
2019-05-16T11:58:32.554Z,15.70
2019-05-16T12:01:02.965Z,15.70
2019-05-16T12:03:33.203Z,15.70
2019-05-16T12:06:03.437Z,15.70
2019-05-16T12:08:33.803Z,15.80
2019-05-16T12:11:03.966Z,15.80
2019-05-16T12:13:36.871Z,15.90
2019-05-16T12:16:07.569Z,15.90
2019-05-16T12:18:38.205Z,16.10
2019-05-16T12:21:08.350Z,16.10
2019-05-16T12:23:38.581Z,16.20
2019-05-16T12:26:08.754Z,16.20
2019-05-16T12:28:38.962Z,16.10
2019-05-16T12:31:09.280Z,16.10
2019-05-16T12:33:39.708Z,16.00
2019-05-16T12:36:09.921Z,16.00
2019-05-16T12:38:40.015Z,16.10
2019-05-16T12:41:10.205Z,16.00
2019-05-16T12:43:48.842Z,16.10
2019-05-16T12:46:12.276Z,16.10
2019-05-16T12:48:42.488Z,16.10
2019-05-16T12:51:12.569Z,16.10
2019-05-16T12:53:42.723Z,16.20
2019-05-16T12:56:12.883Z,16.30
2019-05-16T12:58:43.063Z,16.40
2019-05-16T13:01:16.372Z,16.40
2019-05-16T13:03:47.863Z,16.50
2019-05-16T13:06:17.303Z,16.50
2019-05-16T13:08:48.650Z,16.50
2019-05-16T13:11:19.364Z,16.60
2019-05-16T13:14:02.530Z,16.50
2019-05-16T13:16:21.487Z,16.50
2019-05-16T13:18:51.624Z,16.40
2019-05-16T13:21:22.977Z,16.40
2019-05-16T13:23:53.421Z,16.30
2019-05-16T13:26:23.563Z,16.20
2019-05-16T13:28:53.813Z,16.20
2019-05-16T13:31:24.007Z,16.30
2019-05-16T13:33:56.699Z,16.30
2019-05-16T13:36:27.214Z,16.30
2019-05-16T13:38:57.717Z,16.40
2019-05-16T13:41:27.952Z,16.50
2019-05-16T13:43:58.234Z,16.60
2019-05-16T13:46:28.493Z,16.70
2019-05-16T13:48:59.008Z,16.80
2019-05-16T13:51:29.222Z,16.70
2019-05-16T13:53:59.563Z,16.70
2019-05-16T13:56:29.838Z,16.70
2019-05-16T13:59:00.174Z,16.60
2019-05-16T14:01:30.328Z,16.60
2019-05-16T14:04:01.655Z,16.60
2019-05-16T14:06:31.948Z,16.40
2019-05-16T14:09:02.226Z,16.40
2019-05-16T14:11:36.361Z,16.40
2019-05-16T14:14:05.982Z,16.30
2019-05-16T14:16:37.752Z,16.30
2019-05-16T14:19:08.163Z,16.30
2019-05-16T14:21:38.419Z,16.40
2019-05-16T14:24:08.880Z,16.30
2019-05-16T14:26:39.191Z,16.40
2019-05-16T14:29:09.396Z,16.50
2019-05-16T14:31:39.622Z,16.60
2019-05-16T14:34:09.851Z,16.70
2019-05-16T14:36:40.045Z,16.80
2019-05-16T14:39:10.613Z,16.80
2019-05-16T14:41:40.929Z,16.90
2019-05-16T14:44:11.152Z,16.90
2019-05-16T14:46:41.286Z,16.80
2019-05-16T14:49:12.575Z,16.90
2019-05-16T14:51:42.858Z,17.00
2019-05-16T14:54:13.131Z,17.30
2019-05-16T14:56:43.396Z,17.70
2019-05-16T14:59:13.677Z,17.80
2019-05-16T15:01:43.802Z,18.20
2019-05-16T15:04:14.054Z,18.60
2019-05-16T15:06:46.793Z,19.00
2019-05-16T15:09:17.164Z,19.00
2019-05-16T15:11:48.171Z,19.30
2019-05-16T15:14:28.614Z,19.50
2019-05-16T15:16:58.920Z,19.70
2019-05-16T15:19:29.123Z,19.70
2019-05-16T15:22:02.399Z,19.90
2019-05-16T15:24:31.144Z,20.10
2019-05-16T15:27:02.177Z,19.80
2019-05-16T15:29:32.500Z,19.50
2019-05-16T15:32:02.739Z,19.40
2019-05-16T15:34:34.682Z,19.00
2019-05-16T15:37:07.695Z,18.80
2019-05-16T15:39:37.513Z,18.70
2019-05-16T15:42:08.397Z,18.60
2019-05-16T15:44:38.719Z,18.10
2019-05-16T15:47:09.055Z,17.90
2019-05-16T15:49:39.212Z,17.50
2019-05-16T15:52:09.619Z,17.60
2019-05-16T15:54:41.878Z,18.00
2019-05-16T15:57:12.077Z,18.50
2019-05-16T15:59:42.274Z,18.70
2019-05-16T16:02:12.505Z,18.90
2019-05-16T16:04:42.659Z,19.40
2019-05-16T16:07:12.903Z,19.40
2019-05-16T16:09:43.074Z,19.70
2019-05-16T16:12:13.443Z,19.60
2019-05-16T16:14:43.561Z,19.70
2019-05-16T16:17:13.786Z,20.00
2019-05-16T16:19:44.026Z,19.80
2019-05-16T16:22:14.255Z,19.80
2019-05-16T16:24:47.538Z,19.60
2019-05-16T16:27:16.989Z,19.90
2019-05-16T16:29:48.009Z,20.20
2019-05-16T16:32:18.496Z,19.80
2019-05-16T16:34:49.059Z,20.00
2019-05-16T16:37:19.355Z,19.90
2019-05-16T16:39:49.500Z,20.00
2019-05-16T16:42:20.650Z,19.50
2019-05-16T16:44:50.875Z,18.90
2019-05-16T16:47:21.026Z,18.50
2019-05-16T16:49:53.554Z,18.20
2019-05-16T16:52:23.833Z,18.00
2019-05-16T16:54:56.699Z,18.20
2019-05-16T16:57:27.084Z,18.10
2019-05-16T16:59:57.610Z,18.00
2019-05-16T17:02:27.995Z,17.70
2019-05-16T17:05:01.738Z,17.60
2019-05-16T17:07:30.265Z,17.50
2019-05-16T17:10:00.501Z,17.40
2019-05-16T17:12:30.748Z,17.10
2019-05-16T17:15:00.900Z,16.90
2019-05-16T17:17:31.073Z,16.90
2019-05-16T17:20:01.255Z,16.70
2019-05-16T17:22:37.273Z,16.60
2019-05-16T17:25:07.821Z,16.60
2019-05-16T17:27:38.390Z,16.50
2019-05-16T17:30:17.028Z,16.40
2019-05-16T17:32:47.628Z,16.40
2019-05-16T17:35:19.000Z,16.40
2019-05-16T17:37:49.462Z,16.40
2019-05-16T17:40:20.117Z,16.20
2019-05-16T17:42:50.510Z,16.20
2019-05-16T17:45:21.222Z,16.20
2019-05-16T17:47:51.686Z,16.10
2019-05-16T17:50:22.912Z,16.10
2019-05-16T17:52:53.135Z,16.00
2019-05-16T17:55:23.492Z,15.90
2019-05-16T17:57:53.834Z,15.90
2019-05-16T18:00:28.736Z,15.80
2019-05-16T18:02:57.018Z,15.80
2019-05-16T18:05:30.602Z,15.80
2019-05-16T18:08:01.199Z,15.70
2019-05-16T18:10:31.447Z,15.70
2019-05-16T18:13:01.719Z,15.70
2019-05-16T18:15:31.893Z,15.70
2019-05-16T18:18:02.113Z,15.70
2019-05-16T18:20:32.352Z,15.70
2019-05-16T18:23:02.555Z,15.70
2019-05-16T18:25:32.818Z,15.60
2019-05-16T18:28:04.043Z,15.60
2019-05-16T18:30:36.377Z,15.50
2019-05-16T18:33:07.285Z,15.50
2019-05-16T18:35:38.984Z,15.40
2019-05-16T18:38:09.246Z,15.50
2019-05-16T18:40:39.428Z,15.40
2019-05-16T18:43:09.775Z,15.40
2019-05-16T18:45:39.922Z,15.40
2019-05-16T18:48:10.171Z,15.40
2019-05-16T18:50:40.349Z,15.30
2019-05-16T18:53:10.614Z,15.30
2019-05-16T18:55:40.829Z,15.30
2019-05-16T18:58:10.911Z,15.30
2019-05-16T19:00:41.249Z,15.30
2019-05-16T19:03:11.529Z,15.30
2019-05-16T19:05:41.739Z,15.20
2019-05-16T19:08:11.895Z,15.20
2019-05-16T19:10:42.097Z,15.10
2019-05-16T19:13:12.542Z,15.00
2019-05-16T19:15:42.724Z,14.90
2019-05-16T19:18:12.991Z,14.80
2019-05-16T19:20:43.206Z,14.90
2019-05-16T19:23:13.385Z,14.80
2019-05-16T19:25:43.633Z,14.70
2019-05-16T19:28:13.843Z,14.70
2019-05-16T19:30:46.396Z,14.60
2019-05-16T19:33:17.489Z,14.60
2019-05-16T19:35:49.066Z,14.60
2019-05-16T19:38:20.520Z,14.60
2019-05-16T19:40:50.800Z,14.70
2019-05-16T19:43:21.039Z,14.70
2019-05-16T19:45:51.990Z,14.80
2019-05-16T19:48:22.354Z,14.80
2019-05-16T19:50:52.547Z,14.70
2019-05-16T19:53:22.754Z,14.80
2019-05-16T19:55:56.389Z,14.70
2019-05-16T19:58:26.644Z,14.70
2019-05-16T20:00:57.451Z,14.70
2019-05-16T20:03:27.804Z,14.70
2019-05-16T20:05:57.998Z,14.60
2019-05-16T20:08:28.310Z,14.50
2019-05-16T20:10:58.511Z,14.50
2019-05-16T20:13:28.660Z,14.60
2019-05-16T20:15:59.883Z,14.50
2019-05-16T20:18:30.479Z,14.50
2019-05-16T20:21:01.146Z,14.50
2019-05-16T20:23:31.435Z,14.40
2019-05-16T20:26:01.660Z,14.50
2019-05-16T20:28:31.946Z,14.50
2019-05-16T20:31:03.287Z,14.60
2019-05-16T20:33:33.534Z,14.50
2019-05-16T20:36:06.299Z,14.50
2019-05-16T20:38:37.207Z,14.50
2019-05-16T20:41:07.976Z,14.50
2019-05-16T20:43:38.250Z,14.50
2019-05-16T20:46:08.526Z,14.50
2019-05-16T20:48:38.738Z,14.50
2019-05-16T20:51:08.870Z,14.50
2019-05-16T20:53:39.085Z,14.50
2019-05-16T20:56:09.415Z,14.50
2019-05-16T20:58:40.726Z,14.60
2019-05-16T21:01:10.978Z,14.70
2019-05-16T21:03:41.094Z,14.70
2019-05-16T21:06:11.306Z,14.80
2019-05-16T21:08:41.574Z,14.60
2019-05-16T21:11:11.789Z,14.60
2019-05-16T21:13:42.134Z,14.70
2019-05-16T21:16:12.510Z,14.70
2019-05-16T21:18:42.821Z,14.60
2019-05-16T21:21:12.982Z,14.60
2019-05-16T21:23:43.158Z,14.60
2019-05-16T21:26:13.293Z,14.60
2019-05-16T21:28:43.591Z,14.60
2019-05-16T21:31:13.833Z,14.60
2019-05-16T21:33:44.145Z,14.70
2019-05-16T21:36:16.054Z,14.80
2019-05-16T21:38:46.901Z,14.80
2019-05-16T21:41:17.350Z,14.70
2019-05-16T21:43:47.527Z,14.70
2019-05-16T21:46:20.130Z,14.70
2019-05-16T21:48:49.543Z,14.70
2019-05-16T21:51:19.880Z,14.70
2019-05-16T21:53:50.134Z,14.70
2019-05-16T21:56:20.470Z,14.80
2019-05-16T21:58:50.642Z,14.80
2019-05-16T22:01:22.985Z,14.90
2019-05-16T22:03:53.276Z,14.80
2019-05-16T22:06:23.599Z,14.80
2019-05-16T22:08:54.009Z,14.80
2019-05-16T22:11:26.292Z,14.80
2019-05-16T22:13:57.611Z,14.80
2019-05-16T22:16:27.978Z,14.80
2019-05-16T22:18:59.355Z,14.70
2019-05-16T22:21:29.601Z,14.80
2019-05-16T22:23:59.909Z,14.80
2019-05-16T22:26:30.206Z,14.80
2019-05-16T22:29:00.359Z,14.80
2019-05-16T22:31:30.666Z,14.80
2019-05-16T22:34:01.089Z,14.80
2019-05-16T22:36:31.409Z,14.80
2019-05-16T22:39:01.610Z,14.80
2019-05-16T22:41:33.371Z,14.80
2019-05-16T22:44:03.457Z,14.80
2019-05-16T22:46:33.695Z,14.80
2019-05-16T22:49:03.931Z,14.80
2019-05-16T22:51:36.506Z,14.70
2019-05-16T22:54:07.676Z,14.70
2019-05-16T22:56:38.289Z,14.80
2019-05-16T22:59:08.481Z,14.80
2019-05-16T23:01:38.794Z,14.70
2019-05-16T23:04:09.083Z,14.70
2019-05-16T23:06:39.314Z,14.70
2019-05-16T23:09:09.490Z,14.70
2019-05-16T23:11:39.719Z,14.70
2019-05-16T23:14:09.885Z,14.70
2019-05-16T23:16:40.066Z,14.70
2019-05-16T23:19:10.243Z,14.60
2019-05-16T23:21:40.444Z,14.60
2019-05-16T23:24:10.682Z,14.60
2019-05-16T23:26:41.006Z,14.60
2019-05-16T23:29:11.190Z,14.60
2019-05-16T23:31:41.370Z,14.50
2019-05-16T23:34:11.551Z,14.50
2019-05-16T23:36:41.715Z,14.50
2019-05-16T23:39:11.878Z,14.50
2019-05-16T23:41:42.120Z,14.50
2019-05-16T23:44:12.379Z,14.50
2019-05-16T23:46:42.580Z,14.50
2019-05-16T23:49:12.867Z,14.40
2019-05-16T23:51:43.056Z,14.40
2019-05-16T23:54:13.221Z,14.40
2019-05-16T23:56:43.418Z,14.40
2019-05-16T23:59:13.682Z,14.40
